Time;durP1;ratioP1;P1;durP2;ratioP2;P2;SDS_P1;SDS_P2;PMS_P1;PMS_P2;Temp;Humidity;BMP_temperature;BMP_pressure;BME280_temperature;BME280_humidity;BME280_pressure;Samples;Min_cycle;Max_cycle;Signal;HPM_P1;HPM_P2
2023/03/26 00:00:13;;;;;;;0.57;0.50;;;;;;;10.61;100.00;98484.44;5052848;28;20563;-74
2023/03/26 00:02:42;;;;;;;1.07;0.57;;;;;;;10.55;100.00;98497.75;5053198;28;20222;-74
2023/03/26 00:05:13;;;;;;;1.40;0.90;;;;;;;10.53;100.00;98499.63;5052988;28;20222;-74
2023/03/26 00:07:41;;;;;;;0.87;0.87;;;;;;;10.58;100.00;98517.13;5052800;28;20214;-74
2023/03/26 00:10:08;;;;;;;0.97;0.77;;;;;;;10.55;100.00;98507.97;5052795;28;20219;-74
2023/03/26 00:12:35;;;;;;;0.60;0.60;;;;;;;10.43;100.00;98501.28;5052838;28;20473;-74
2023/03/26 00:15:03;;;;;;;0.47;0.47;;;;;;;10.47;100.00;98494.19;5052572;28;20227;-74
2023/03/26 00:17:30;;;;;;;0.83;0.67;;;;;;;10.45;100.00;98501.19;5052611;28;20226;-74
2023/03/26 00:19:58;;;;;;;1.57;0.87;;;;;;;10.49;100.00;98508.47;5053031;28;20552;-74
2023/03/26 00:22:25;;;;;;;1.30;0.70;;;;;;;10.51;100.00;98506.59;5053094;28;20206;-74
2023/03/26 00:24:52;;;;;;;1.37;1.07;;;;;;;10.57;100.00;98506.09;5052694;28;20695;-74
2023/03/26 00:27:19;;;;;;;1.27;0.70;;;;;;;10.61;100.00;98497.22;5052413;28;20207;-74
2023/03/26 00:29:47;;;;;;;1.40;0.83;;;;;;;10.64;100.00;98496.19;5052407;28;20223;-74
2023/03/26 00:32:13;;;;;;;0.97;0.83;;;;;;;10.64;100.00;98496.97;5052864;28;20675;-74
2023/03/26 00:34:41;;;;;;;0.83;0.83;;;;;;;10.68;100.00;98496.75;5052320;28;20691;-74
2023/03/26 00:37:13;;;;;;;1.10;0.90;;;;;;;10.75;100.00;98492.75;5052502;28;20594;-74
2023/03/26 00:39:41;;;;;;;1.80;1.13;;;;;;;10.74;100.00;98496.25;5052224;28;20219;-74
2023/03/26 00:42:08;;;;;;;1.30;1.20;;;;;;;10.74;100.00;98503.91;5052209;28;20200;-74
2023/03/26 00:44:35;;;;;;;1.70;1.10;;;;;;;10.79;100.00;98504.34;5051859;28;20300;-74
2023/03/26 00:47:02;;;;;;;1.67;1.37;;;;;;;10.74;100.00;98491.13;5052339;28;20626;-74
2023/03/26 00:49:30;;;;;;;1.50;1.17;;;;;;;10.73;100.00;98494.63;5052121;28;20231;-74
2023/03/26 00:51:57;;;;;;;1.23;0.90;;;;;;;10.72;100.00;98498.13;5052475;28;20238;-74
2023/03/26 00:54:25;;;;;;;2.10;1.33;;;;;;;10.74;100.00;98496.25;5051983;28;20613;-74
2023/03/26 00:56:54;;;;;;;1.50;1.27;;;;;;;10.71;100.00;98492.19;5052444;28;20227;-74
2023/03/26 00:59:22;;;;;;;2.27;1.53;;;;;;;10.69;100.00;98488.13;5051935;28;20776;-74
2023/03/26 01:01:50;;;;;;;1.70;1.20;;;;;;;10.68;100.00;98496.75;5051884;28;20199;-74
2023/03/26 01:04:26;;;;;;;2.07;1.27;;;;;;;10.64;100.00;98491.88;5051702;28;20302;-74
2023/03/26 01:06:55;;;;;;;0.90;0.90;;;;;;;10.64;100.00;98502.09;5051861;28;20206;-74
2023/03/26 01:09:26;;;;;;;2.40;1.50;;;;;;;10.59;100.00;98499.13;5051865;28;20215;-74
2023/03/26 01:11:54;;;;;;;1.87;1.40;;;;;;;10.58;100.00;98492.38;5051577;28;20679;-74
2023/03/26 01:14:25;;;;;;;1.50;1.10;;;;;;;10.53;100.00;98491.13;5051379;28;20237;-74
2023/03/26 01:16:54;;;;;;;1.03;0.93;;;;;;;10.51;100.00;98481.03;5051663;28;20233;-74
2023/03/26 01:19:29;;;;;;;1.30;1.20;;;;;;;10.48;100.00;98486.41;5051521;28;20341;-74
2023/03/26 01:21:57;;;;;;;1.50;0.90;;;;;;;10.35;100.00;98480.66;5051807;28;20206;-74
2023/03/26 01:24:26;;;;;;;1.13;0.80;;;;;;;10.40;100.00;98470.88;5051429;28;20227;-74
2023/03/26 01:27:16;;;;;;;0.93;0.87;;;;;;;10.43;100.00;98476.53;5051896;28;20599;-74
2023/03/26 01:29:47;;;;;;;1.10;1.00;;;;;;;10.40;100.00;98473.44;5051511;28;20306;-73
2023/03/26 01:32:34;;;;;;;0.80;0.70;;;;;;;10.30;100.00;98478.50;5051489;28;20650;-73
2023/03/26 01:35:16;;;;;;;0.73;0.73;;;;;;;10.25;100.00;98469.53;5051319;28;20633;-73
2023/03/26 01:37:53;;;;;;;0.93;0.87;;;;;;;10.26;100.00;98466.84;5051340;28;20615;-73
2023/03/26 01:40:26;;;;;;;0.80;0.80;;;;;;;10.18;100.00;98475.16;5051071;28;20699;-73
2023/03/26 01:42:58;;;;;;;1.07;0.77;;;;;;;10.18;100.00;98475.16;5051089;28;20203;-73
2023/03/26 01:45:30;;;;;;;1.30;1.00;;;;;;;10.17;100.00;98477.81;5051365;28;20210;-73
2023/03/26 01:47:57;;;;;;;1.10;0.87;;;;;;;10.19;100.00;98474.22;5051180;28;20557;-73
2023/03/26 01:50:24;;;;;;;0.50;0.50;;;;;;;10.16;100.00;98471.09;5051045;28;20264;-73
2023/03/26 01:52:51;;;;;;;0.50;0.47;;;;;;;10.19;100.00;98475.97;5050780;28;20205;-73
2023/03/26 01:55:18;;;;;;;1.30;1.10;;;;;;;10.19;100.00;98476.75;5051131;28;20257;-73
2023/03/26 01:57:58;;;;;;;0.70;0.53;;;;;;;10.22;100.00;98474.91;5050783;28;20231;-73
2023/03/26 02:00:29;;;;;;;1.10;0.80;;;;;;;10.27;100.00;98478.75;5050911;28;20570;-73
2023/03/26 02:03:16;;;;;;;0.83;0.83;;;;;;;10.37;100.00;98489.03;5050745;28;20672;-73
2023/03/26 02:05:50;;;;;;;1.53;1.03;;;;;;;10.29;100.00;98497.28;5050691;28;20761;-74
2023/03/26 02:08:23;;;;;;;1.90;1.10;;;;;;;10.26;100.00;98496.69;5050799;28;20273;-73
2023/03/26 02:10:52;;;;;;;1.27;1.00;;;;;;;10.29;100.00;98492.19;5050999;28;20207;-74
2023/03/26 02:13:21;;;;;;;1.03;0.93;;;;;;;10.25;100.00;98495.91;5050118;28;20262;-74
2023/03/26 02:15:56;;;;;;;1.73;1.20;;;;;;;10.22;100.00;98500.44;5050500;28;20203;-74
2023/03/26 02:18:24;;;;;;;1.50;1.03;;;;;;;10.24;100.00;98493.44;5050616;28;20608;-74
2023/03/26 02:20:51;;;;;;;0.93;0.83;;;;;;;10.26;100.00;98491.59;5050330;28;20257;-74
2023/03/26 02:23:20;;;;;;;1.17;0.87;;;;;;;10.24;100.00;98490.91;5050219;28;20276;-74
2023/03/26 02:25:47;;;;;;;4.73;1.10;;;;;;;10.22;100.00;98490.22;5050567;28;20199;-74
2023/03/26 02:28:13;;;;;;;1.17;0.97;;;;;;;10.26;100.00;98492.41;5050044;28;20726;-74
2023/03/26 02:30:42;;;;;;;0.80;0.80;;;;;;;10.10;100.00;98487.72;5050553;28;20230;-74
2023/03/26 02:33:14;;;;;;;1.20;1.10;;;;;;;10.15;100.00;98483.06;5050533;28;20204;-74
2023/03/26 02:35:43;;;;;;;1.30;1.10;;;;;;;10.06;100.00;98486.31;5050278;28;20238;-74
2023/03/26 02:38:13;;;;;;;0.87;0.77;;;;;;;9.97;100.00;98476.84;5050076;28;20219;-74
2023/03/26 02:40:40;;;;;;;0.70;0.63;;;;;;;9.89;100.00;98479.19;5050260;28;20653;-74
2023/03/26 02:43:07;;;;;;;0.73;0.70;;;;;;;9.88;100.00;98477.59;5050057;28;20207;-74
2023/03/26 02:45:34;;;;;;;2.50;1.00;;;;;;;9.86;100.00;98479.44;5050240;28;20273;-74
2023/03/26 02:48:02;;;;;;;1.60;0.83;;;;;;;9.80;100.00;98485.03;5050162;28;20203;-74
2023/03/26 02:50:31;;;;;;;1.43;0.90;;;;;;;9.77;100.00;98490.38;5050037;28;20621;-74
2023/03/26 02:52:58;;;;;;;0.50;0.50;;;;;;;9.74;100.00;98492.25;5050139;28;20667;-74
2023/03/26 02:55:26;;;;;;;0.67;0.67;;;;;;;9.71;100.00;98487.38;5050236;28;20195;-74
2023/03/26 02:57:53;;;;;;;2.53;1.00;;;;;;;9.70;100.00;98506.19;5049555;28;20234;-75
2023/03/26 03:00:21;;;;;;;0.67;0.67;;;;;;;9.74;100.00;98497.38;5050056;28;20309;-74
2023/03/26 03:02:48;;;;;;;0.50;0.50;;;;;;;9.80;100.00;98496.03;5049981;28;20195;-74
2023/03/26 03:05:18;;;;;;;1.03;0.93;;;;;;;9.80;100.00;98496.03;5050170;28;20223;-74
2023/03/26 03:07:45;;;;;;;0.60;0.60;;;;;;;9.72;100.00;98504.31;5049639;28;20203;-74
2023/03/26 03:10:13;;;;;;;0.83;0.83;;;;;;;9.58;100.00;98502.03;5049699;28;20695;-74
2023/03/26 03:12:40;;;;;;;2.23;0.97;;;;;;;9.55;100.00;98509.94;5049718;28;20200;-74
2023/03/26 03:15:08;;;;;;;0.80;0.80;;;;;;;9.55;100.00;98506.56;5049720;28;20644;-74
2023/03/26 03:17:35;;;;;;;1.47;1.00;;;;;;;9.56;100.00;98514.09;5049718;28;20233;-74
2023/03/26 03:20:03;;;;;;;0.50;0.50;;;;;;;9.55;100.00;98511.69;5049553;28;20618;-74
2023/03/26 03:22:32;;;;;;;1.20;1.00;;;;;;;9.56;100.00;98519.19;5049538;28;20214;-74
2023/03/26 03:24:59;;;;;;;1.73;1.20;;;;;;;9.52;100.00;98517.81;5050253;28;20252;-74
2023/03/26 03:27:26;;;;;;;1.33;1.03;;;;;;;9.54;100.00;98521.06;5053951;28;20206;-74
2023/03/26 03:29:54;;;;;;;0.70;0.70;;;;;;;9.45;100.00;98526.84;5053673;28;20315;-74
2023/03/26 03:32:21;;;;;;;2.23;1.13;;;;;;;9.43;100.00;98523.63;5053630;28;20231;-74
2023/03/26 03:34:49;;;;;;;1.87;1.00;;;;;;;9.40;100.00;98523.88;5053302;28;20297;-74
2023/03/26 03:37:16;;;;;;;1.90;0.90;;;;;;;9.44;100.00;98525.25;5053517;28;20686;-74
2023/03/26 03:39:44;;;;;;;1.70;0.67;;;;;;;9.42;100.00;98529.66;5053529;28;20215;-74
2023/03/26 03:42:11;;;;;;;2.10;1.47;;;;;;;9.47;100.00;98525.00;5053668;28;20210;-74
2023/03/26 03:44:38;;;;;;;0.77;0.73;;;;;;;9.46;100.00;98528.50;5053185;28;20233;-74
2023/03/26 03:47:05;;;;;;;1.30;0.87;;;;;;;9.30;100.00;98524.53;5053464;28;20199;-74
2023/03/26 03:49:33;;;;;;;0.73;0.73;;;;;;;9.33;100.00;98528.59;5053102;28;20275;-74
2023/03/26 03:52:00;;;;;;;1.37;1.07;;;;;;;9.25;100.00;98534.31;5053087;28;20214;-75
2023/03/26 03:54:28;;;;;;;0.93;0.70;;;;;;;9.30;100.00;98531.41;5053319;28;20227;-74
2023/03/26 03:56:56;;;;;;;2.07;0.83;;;;;;;9.21;100.00;98525.25;5053055;28;20235;-74
2023/03/26 03:59:23;;;;;;;1.37;1.17;;;;;;;9.21;100.00;98534.66;5053251;28;20602;-74
2023/03/26 04:01:50;;;;;;;2.30;0.90;;;;;;;9.23;100.00;98528.50;5053008;28;20199;-74
2023/03/26 04:04:17;;;;;;;1.90;1.07;;;;;;;9.21;100.00;98530.34;5052850;28;20219;-74
2023/03/26 04:06:44;;;;;;;1.23;0.93;;;;;;;9.17;100.00;98534.06;5053168;28;20210;-74
2023/03/26 04:09:11;;;;;;;0.40;0.40;;;;;;;9.14;100.00;98534.31;5052795;28;20234;-74
2023/03/26 04:11:38;;;;;;;1.57;1.17;;;;;;;9.09;100.00;98541.47;5052927;28;20203;-74
2023/03/26 04:14:06;;;;;;;0.63;0.63;;;;;;;9.12;100.00;98545.53;5052753;28;20227;-74
2023/03/26 04:16:33;;;;;;;0.80;0.80;;;;;;;9.08;100.00;98539.88;5052852;28;20231;-74
2023/03/26 04:19:01;;;;;;;1.57;1.40;;;;;;;9.00;100.00;98542.16;5052793;28;20223;-74
2023/03/26 04:21:29;;;;;;;2.20;1.30;;;;;;;9.04;100.00;98543.56;5052908;28;20626;-74
2023/03/26 04:23:56;;;;;;;1.10;0.87;;;;;;;9.04;100.00;98546.09;5052648;28;20615;-74
2023/03/26 04:26:23;;;;;;;1.53;1.10;;;;;;;8.97;100.00;98552.59;5052910;28;20694;-74
2023/03/26 04:28:53;;;;;;;2.43;1.10;;;;;;;8.96;100.00;98556.06;5052698;28;20219;-74
2023/03/26 04:31:27;;;;;;;0.93;0.90;;;;;;;8.90;100.00;98556.50;5052652;28;20227;-74
2023/03/26 04:33:58;;;;;;;1.57;1.23;;;;;;;8.83;100.00;98567.16;5052466;28;20222;-74
2023/03/26 04:36:28;;;;;;;0.87;0.80;;;;;;;8.77;100.00;98567.63;5052092;28;20235;-74
2023/03/26 04:38:57;;;;;;;1.10;0.83;;;;;;;8.74;100.00;98583.13;5052444;28;20635;-74
2023/03/26 04:41:25;;;;;;;1.00;0.70;;;;;;;8.72;100.00;98579.88;5052584;28;20238;-74
2023/03/26 04:43:52;;;;;;;2.33;1.67;;;;;;;8.66;100.00;98590.50;5052149;28;20238;-74
2023/03/26 04:46:20;;;;;;;1.07;0.97;;;;;;;8.66;100.00;98600.72;5052613;28;20226;-74
2023/03/26 04:48:49;;;;;;;1.87;0.77;;;;;;;8.60;100.00;98606.25;5052118;28;20304;-74
2023/03/26 04:51:17;;;;;;;0.97;0.97;;;;;;;8.60;100.00;98603.69;5052468;28;20199;-74
2023/03/26 04:53:50;;;;;;;1.33;1.10;;;;;;;8.62;100.00;98609.50;5052333;28;20265;-74
2023/03/26 04:56:30;;;;;;;2.73;1.30;;;;;;;8.59;100.00;98614.81;5052510;28;20698;-74
2023/03/26 04:59:00;;;;;;;0.77;0.77;;;;;;;8.58;100.00;98618.28;5051834;28;20219;-74
2023/03/26 05:01:29;;;;;;;1.47;1.10;;;;;;;8.54;100.00;98611.78;5052169;28;20205;-74
2023/03/26 05:03:58;;;;;;;0.97;0.93;;;;;;;8.48;100.00;98635.16;5051972;28;20235;-74
2023/03/26 05:06:27;;;;;;;1.67;0.80;;;;;;;8.47;100.00;98631.00;5051996;28;20200;-74
2023/03/26 05:08:54;;;;;;;0.77;0.77;;;;;;;8.43;100.00;98634.66;5051823;28;20223;-74
2023/03/26 05:11:21;;;;;;;1.47;1.00;;;;;;;8.43;100.00;98639.75;5052285;28;20203;-74
2023/03/26 05:13:48;;;;;;;0.80;0.70;;;;;;;8.46;100.00;98649.72;5051424;28;20235;-74
2023/03/26 05:16:15;;;;;;;0.80;0.70;;;;;;;8.50;100.00;98640.97;5051735;28;20199;-74
2023/03/26 05:18:41;;;;;;;1.50;1.20;;;;;;;8.55;100.00;98651.63;5051556;28;20639;-74
2023/03/26 05:21:10;;;;;;;1.20;0.77;;;;;;;8.64;100.00;98653.53;5051674;28;20195;-74
2023/03/26 05:23:37;;;;;;;1.67;1.50;;;;;;;8.68;100.00;98656.69;5051575;28;20229;-74
2023/03/26 05:26:06;;;;;;;0.80;0.80;;;;;;;8.86;100.00;98668.09;5051570;28;20207;-74
2023/03/26 05:28:33;;;;;;;1.37;0.97;;;;;;;9.36;100.00;98670.44;5051290;28;20277;-74
2023/03/26 05:31:00;;;;;;;1.17;0.80;;;;;;;9.89;100.00;98668.16;5051617;28;20203;-74
2023/03/26 05:33:27;;;;;;;1.13;0.93;;;;;;;10.36;100.00;98673.94;5051323;28;20242;-74
2023/03/26 05:36:01;;;;;;;2.30;1.37;;;;;;;10.53;100.00;98673.44;5051612;28;20261;-74
2023/03/26 05:38:30;;;;;;;2.37;1.20;;;;;;;10.47;100.00;98663.69;5051364;28;20235;-74
2023/03/26 05:41:00;;;;;;;1.43;1.30;;;;;;;10.12;100.00;98663.84;5051311;28;20210;-74
2023/03/26 05:43:27;;;;;;;1.60;1.03;;;;;;;9.69;100.00;98662.81;5051317;28;20602;-74
2023/03/26 05:45:54;;;;;;;1.27;1.17;;;;;;;10.05;100.00;98663.50;5051344;28;20199;-74
2023/03/26 05:48:22;;;;;;;0.70;0.70;;;;;;;10.47;100.00;98662.88;5050127;28;20757;-74
2023/03/26 05:50:49;;;;;;;1.63;1.10;;;;;;;10.75;100.00;98657.19;5051133;28;20206;-74
2023/03/26 05:53:17;;;;;;;1.67;1.30;;;;;;;10.92;100.00;98655.84;5050803;28;20222;-74
2023/03/26 05:55:49;;;;;;;1.47;1.23;;;;;;;10.83;100.00;98654.03;5051274;28;20293;-74
2023/03/26 05:58:16;;;;;;;1.47;1.03;;;;;;;10.78;100.00;98651.03;5050753;28;20258;-74
2023/03/26 06:00:47;;;;;;;2.40;1.17;;;;;;;10.92;100.00;98653.28;5050944;28;20211;-74
2023/03/26 06:03:15;;;;;;;1.23;1.00;;;;;;;11.14;100.00;98651.53;5050743;28;20227;-74
2023/03/26 06:05:42;;;;;;;2.70;1.17;;;;;;;11.47;100.00;98653.91;5051028;28;20281;-74
2023/03/26 06:08:09;;;;;;;1.93;1.10;;;;;;;11.47;100.00;98666.69;5050732;28;20215;-74
2023/03/26 06:10:38;;;;;;;3.23;1.13;;;;;;;11.64;100.00;98657.63;5050495;28;20647;-74
2023/03/26 06:13:06;;;;;;;1.17;1.00;;;;;;;11.91;100.00;98672.44;5050364;28;20590;-74
2023/03/26 06:15:33;;;;;;;1.37;1.17;;;;;;;11.97;100.00;98661.69;5050897;28;20664;-74
2023/03/26 06:18:01;;;;;;;1.07;0.90;;;;;;;12.02;100.00;98669.00;5050288;28;20322;-75
2023/03/26 06:20:42;;;;;;;2.60;1.53;;;;;;;12.04;100.00;98668.84;5107444;27;20564;-63
2023/03/26 06:23:09;;;;;;;1.50;1.00;;;;;;;11.98;100.00;98673.56;5107182;28;20275;-63
2023/03/26 06:25:37;;;;;;;2.43;1.70;;;;;;;12.22;100.00;98669.84;5107406;28;20213;-63
2023/03/26 06:28:04;;;;;;;2.13;1.10;;;;;;;12.35;100.00;98670.41;5107081;28;20194;-63
2023/03/26 06:30:31;;;;;;;1.17;1.00;;;;;;;12.51;100.00;98679.31;5107315;28;20232;-60
2023/03/26 06:32:58;;;;;;;1.50;1.10;;;;;;;13.03;100.00;98685.03;5107109;28;20240;-63
2023/03/26 06:35:25;;;;;;;1.30;1.00;;;;;;;12.53;100.00;98682.59;5107064;28;20232;-60
2023/03/26 06:37:53;;;;;;;1.47;1.03;;;;;;;12.63;100.00;98684.22;5107337;28;20204;-63
2023/03/26 06:40:20;;;;;;;1.80;1.30;;;;;;;12.99;100.00;98684.50;5106902;28;20255;-63
2023/03/26 06:42:47;;;;;;;1.70;1.27;;;;;;;13.39;100.00;98680.97;5107153;28;20201;-63
2023/03/26 06:45:14;;;;;;;2.80;1.60;;;;;;;12.97;100.00;98693.25;5106988;28;20221;-59
2023/03/26 06:47:41;;;;;;;1.47;1.20;;;;;;;13.00;100.00;98687.84;5106855;28;20201;-60
2023/03/26 06:50:09;;;;;;;0.73;0.60;;;;;;;12.92;99.76;98688.56;5106872;28;20728;-60
2023/03/26 06:52:36;;;;;;;1.00;0.83;;;;;;;13.50;100.00;98690.28;5107060;28;20208;-60
2023/03/26 06:55:09;;;;;;;2.47;1.20;;;;;;;13.51;100.00;98684.97;5106899;28;20222;-60
2023/03/26 06:57:36;;;;;;;1.30;1.10;;;;;;;14.01;97.40;98686.44;5106795;28;20191;-60
2023/03/26 07:00:04;;;;;;;1.57;1.07;;;;;;;13.77;96.00;98685.16;5106574;28;20237;-63
2023/03/26 07:02:31;;;;;;;2.00;0.90;;;;;;;13.85;97.02;98681.09;5106834;28;20198;-60
2023/03/26 07:04:57;;;;;;;1.03;0.97;;;;;;;14.13;90.88;98687.03;5106439;28;20733;-63
2023/03/26 07:07:24;;;;;;;1.20;1.10;;;;;;;14.56;94.28;98691.56;5106486;28;20567;-63
2023/03/26 07:09:51;;;;;;;1.33;1.13;;;;;;;14.83;90.55;98692.44;5106314;28;20586;-63
2023/03/26 07:12:20;;;;;;;1.33;1.10;;;;;;;14.94;93.31;98687.88;5106433;28;20193;-63
2023/03/26 07:14:47;;;;;;;2.33;1.00;;;;;;;15.16;88.10;98699.50;5106775;28;20228;-60
2023/03/26 07:17:13;;;;;;;2.83;1.63;;;;;;;14.70;87.51;98701.34;5106386;28;20201;-60
2023/03/26 07:19:40;;;;;;;2.93;1.33;;;;;;;14.44;86.10;98697.84;5106358;28;20624;-60
2023/03/26 07:22:14;;;;;;;3.03;1.63;;;;;;;14.40;90.76;98707.63;5106222;28;20208;-60
2023/03/26 07:24:42;;;;;;;2.17;1.67;;;;;;;14.81;89.68;98700.31;5106491;28;20209;-60
2023/03/26 07:27:16;;;;;;;3.20;1.70;;;;;;;14.74;86.80;98708.78;5106152;28;20692;-60
2023/03/26 07:29:49;;;;;;;3.47;1.90;;;;;;;15.08;88.44;98696.84;5105354;28;20216;-60
2023/03/26 07:32:24;;;;;;;1.43;1.20;;;;;;;15.02;87.58;98701.78;5092175;28;20573;-60
2023/03/26 07:34:56;;;;;;;1.03;0.93;;;;;;;15.42;84.22;98713.31;5092437;28;20213;-60
2023/03/26 07:37:35;;;;;;;2.83;0.90;;;;;;;15.39;85.54;98717.03;5092490;28;20190;-60
2023/03/26 07:40:11;;;;;;;3.60;1.70;;;;;;;15.28;86.55;98722.44;5092206;28;20721;-63
2023/03/26 07:42:49;;;;;;;2.87;1.70;;;;;;;15.53;83.85;98726.81;5092502;28;20217;-65
2023/03/26 07:45:28;;;;;;;2.03;1.20;;;;;;;15.67;86.32;98728.00;5092084;28;20213;-63
2023/03/26 07:47:56;;;;;;;1.87;1.47;;;;;;;15.43;80.43;98731.22;5092311;28;20592;-60
2023/03/26 07:50:24;;;;;;;2.23;1.37;;;;;;;15.26;85.45;98735.44;5092370;28;20221;-63
2023/03/26 07:52:52;;;;;;;1.27;1.07;;;;;;;15.83;82.95;98729.91;5091991;28;20662;-63
2023/03/26 07:55:20;;;;;;;0.90;0.90;;;;;;;16.28;83.10;98731.38;5092088;28;20224;-63
2023/03/26 07:57:58;;;;;;;2.43;1.50;;;;;;;16.47;85.79;98738.06;5091950;28;20633;-63
2023/03/26 08:00:33;;;;;;;1.87;1.50;;;;;;;16.22;79.52;98732.00;5092331;28;20395;-63
2023/03/26 08:03:22;;;;;;;2.63;1.40;;;;;;;16.34;81.79;98733.31;5091898;28;20189;-63
2023/03/26 08:05:55;;;;;;;2.87;1.50;;;;;;;16.34;78.88;98743.66;5091959;28;20198;-60
2023/03/26 08:08:27;;;;;;;3.90;1.60;;;;;;;17.17;72.87;98740.28;5091471;28;20289;-60
2023/03/26 08:11:08;;;;;;;1.87;1.37;;;;;;;17.06;74.95;98732.84;5092278;28;20213;-63
2023/03/26 08:13:43;;;;;;;1.87;1.40;;;;;;;16.72;76.47;98731.97;5091622;28;20233;-60
2023/03/26 08:16:18;;;;;;;1.93;1.30;;;;;;;16.70;75.59;98731.34;5091871;28;20202;-60
2023/03/26 08:18:55;;;;;;;2.57;1.60;;;;;;;16.43;75.51;98718.69;5091424;28;20231;-60
2023/03/26 08:21:25;;;;;;;1.63;1.10;;;;;;;16.32;77.44;98722.38;5092058;28;20190;-63
2023/03/26 08:24:02;;;;;;;3.20;1.93;;;;;;;16.23;74.43;98718.13;5091453;28;20222;-65
2023/03/26 08:26:35;;;;;;;0.93;0.93;;;;;;;16.45;74.09;98725.31;5091666;28;20282;-65
2023/03/26 08:29:14;;;;;;;3.23;1.60;;;;;;;16.38;73.72;98721.75;5091375;28;20299;-65
2023/03/26 08:31:46;;;;;;;2.53;1.77;;;;;;;16.61;73.90;98728.88;5091853;28;20194;-62
2023/03/26 08:34:14;;;;;;;2.40;1.50;;;;;;;16.85;76.62;98717.84;5091095;28;20218;-62
2023/03/26 08:36:41;;;;;;;1.97;1.23;;;;;;;17.23;71.55;98718.97;5091695;28;20263;-62
2023/03/26 08:39:08;;;;;;;1.47;1.00;;;;;;;17.72;71.54;98711.16;5090998;28;20278;-65
2023/03/26 08:42:04;;;;;;;2.57;1.40;;;;;;;17.82;72.06;98706.59;5091186;28;20206;-65
2023/03/26 08:45:05;;;;;;;1.57;0.97;;;;;;;17.01;71.15;98706.69;5091045;28;20223;-65
2023/03/26 08:48:10;;;;;;;1.40;1.17;;;;;;;17.01;69.66;98717.03;5091126;28;20205;-62
2023/03/26 08:51:11;;;;;;;2.03;1.10;;;;;;;17.32;72.51;98730.13;5075861;28;20234;-62
2023/03/26 08:54:33;;;;;;;1.40;1.30;;;;;;;17.89;66.29;98717.13;5090613;28;20786;-61
2023/03/26 08:57:16;;;;;;;1.50;1.30;;;;;;;17.90;67.58;98717.91;5090940;28;20207;-65
2023/03/26 09:00:00;;;;;;;2.07;1.30;;;;;;;18.16;66.29;98717.66;5090878;28;20231;-65
2023/03/26 09:03:07;;;;;;;3.40;1.40;;;;;;;18.08;68.30;98700.38;5090691;28;20207;-65
2023/03/26 09:05:51;;;;;;;1.20;1.00;;;;;;;17.78;65.23;98694.19;5090755;28;20196;-62
2023/03/26 09:08:54;;;;;;;1.73;1.10;;;;;;;17.55;64.77;98697.44;5090432;28;20278;-64
2023/03/26 09:11:45;;;;;;;1.13;1.00;;;;;;;18.27;63.02;98701.75;5090908;28;20196;-61
2023/03/26 09:14:53;;;;;;;1.30;1.00;;;;;;;18.28;61.75;98701.56;5090478;28;20229;-61
2023/03/26 09:17:58;;;;;;;1.27;1.00;;;;;;;18.24;61.92;98704.69;5064781;28;20206;-64
2023/03/26 09:21:03;;;;;;;1.37;0.90;;;;;;;18.55;59.42;98713.22;5074479;28;20233;-65
2023/03/26 09:24:21;;;;;;;1.00;0.80;;;;;;;18.84;59.26;98721.34;5084931;28;20228;-64
2023/03/26 09:26:59;;;;;;;1.37;0.93;;;;;;;18.80;58.20;98709.72;5090392;28;20205;-65
2023/03/26 09:30:01;;;;;;;1.80;1.13;;;;;;;19.52;52.99;98712.69;5090239;28;20230;-62
2023/03/26 09:33:06;;;;;;;1.10;0.90;;;;;;;19.11;56.54;98699.28;5090182;28;20202;-61
2023/03/26 09:35:53;;;;;;;3.13;1.30;;;;;;;19.23;56.63;98701.28;5090478;28;20281;-64
2023/03/26 09:38:40;;;;;;;2.00;1.57;;;;;;;18.83;57.41;98699.81;5089887;28;20203;-61
2023/03/26 09:41:14;;;;;;;1.17;0.90;;;;;;;19.14;55.79;98683.38;5090059;28;20232;-61
2023/03/26 09:44:11;;;;;;;0.60;0.60;;;;;;;19.77;53.91;98687.31;5090188;28;20364;-61
2023/03/26 09:46:51;;;;;;;1.73;0.90;;;;;;;18.81;53.08;98693.19;5090195;28;20279;-62
2023/03/26 09:49:33;;;;;;;2.67;1.03;;;;;;;19.03;50.12;98692.38;5089875;28;20224;-62
2023/03/26 09:52:16;;;;;;;0.60;0.60;;;;;;;19.25;52.51;98680.34;5090081;28;20245;-61
2023/03/26 09:55:24;;;;;;;1.07;0.80;;;;;;;19.07;53.45;98661.75;5089888;28;20245;-61
2023/03/26 09:58:14;;;;;;;1.50;1.00;;;;;;;19.08;53.74;98655.56;5039876;28;20293;-61
2023/03/26 10:00:48;;;;;;;1.00;0.80;;;;;;;19.11;51.17;98644.84;5089930;28;20225;-62
2023/03/26 10:03:40;;;;;;;2.00;1.13;;;;;;;19.23;53.11;98641.66;5089186;28;20729;-61
2023/03/26 10:06:30;;;;;;;1.87;1.30;;;;;;;19.01;53.30;98650.28;5084769;28;20257;-64
2023/03/26 10:09:20;;;;;;;1.33;0.97;;;;;;;18.96;51.63;98642.22;5089402;28;20698;-64
2023/03/26 10:12:06;;;;;;;0.80;0.77;;;;;;;18.72;50.87;98640.63;5089669;28;20194;-65
2023/03/26 10:14:39;;;;;;;1.10;1.00;;;;;;;18.52;50.23;98651.44;5089810;28;20224;-64
2023/03/26 10:17:27;;;;;;;1.07;0.80;;;;;;;18.99;50.93;98644.47;5089644;28;20682;-65
2023/03/26 10:20:08;;;;;;;0.83;0.83;;;;;;;18.54;50.15;98649.50;5089481;28;20241;-61
2023/03/26 10:22:47;;;;;;;1.77;1.10;;;;;;;19.26;51.19;98626.72;5089725;28;20217;-61
2023/03/26 10:25:28;;;;;;;1.43;1.10;;;;;;;18.61;52.49;98641.84;5089522;28;20716;-64
2023/03/26 10:28:09;;;;;;;1.30;0.97;;;;;;;18.60;53.58;98621.31;5089564;28;20204;-65
2023/03/26 10:30:59;;;;;;;0.87;0.87;;;;;;;19.17;50.65;98621.66;5089453;28;20210;-61
2023/03/26 10:33:34;;;;;;;0.80;0.70;;;;;;;19.53;50.97;98628.72;5089339;28;20271;-61
2023/03/26 10:36:21;;;;;;;1.00;0.90;;;;;;;19.64;49.65;98625.66;5089642;28;20209;-65
2023/03/26 10:39:02;;;;;;;2.43;1.20;;;;;;;19.40;49.67;98612.97;5089464;28;20220;-65
2023/03/26 10:41:45;;;;;;;1.50;1.00;;;;;;;19.21;49.68;98599.56;5089567;28;20228;-61
2023/03/26 10:44:32;;;;;;;1.30;1.00;;;;;;;19.60;49.30;98603.66;5089654;28;20235;-61
2023/03/26 10:47:15;;;;;;;0.90;0.70;;;;;;;19.73;49.53;98597.06;5089454;28;20213;-64
2023/03/26 10:50:03;;;;;;;1.30;1.10;;;;;;;19.09;47.20;98601.00;5089403;28;20610;-64
2023/03/26 10:52:37;;;;;;;1.37;1.00;;;;;;;19.62;49.17;98601.69;5089393;28;20202;-64
2023/03/26 10:55:14;;;;;;;0.60;0.50;;;;;;;19.68;47.86;98595.00;5089062;28;20223;-61
2023/03/26 10:57:47;;;;;;;1.03;0.60;;;;;;;19.49;48.82;98591.16;5089365;28;20227;-61
2023/03/26 11:00:23;;;;;;;0.70;0.70;;;;;;;19.33;45.63;98591.34;5088955;28;20225;-61
2023/03/26 11:03:03;;;;;;;0.40;0.40;;;;;;;19.36;45.65;98596.16;5089107;28;20686;-61
2023/03/26 11:05:46;;;;;;;1.00;0.73;;;;;;;19.18;47.93;98589.56;5090209;28;20255;-64
2023/03/26 11:08:19;;;;;;;0.83;0.60;;;;;;;19.17;47.57;98577.59;5092739;28;20196;-64
2023/03/26 11:10:56;;;;;;;3.97;0.80;;;;;;;19.49;47.54;98579.97;5093024;28;20748;-61
2023/03/26 11:13:35;;;;;;;1.03;0.73;;;;;;;19.75;45.99;98571.75;5092673;28;20201;-61
2023/03/26 11:16:04;;;;;;;0.40;0.40;;;;;;;18.80;42.93;98569.88;5093036;28;20616;-66
2023/03/26 11:18:40;;;;;;;0.40;0.40;;;;;;;18.68;44.84;98572.84;5092409;28;20713;-61
2023/03/26 11:21:11;;;;;;;1.87;0.70;;;;;;;19.21;46.60;98571.06;5092583;28;20635;-61
2023/03/26 11:23:46;;;;;;;0.60;0.57;;;;;;;19.72;44.09;98572.09;5092962;28;20225;-64
2023/03/26 11:26:16;;;;;;;0.50;0.40;;;;;;;18.79;43.36;98579.41;5092876;28;20205;-65
2023/03/26 11:29:02;;;;;;;0.60;0.60;;;;;;;19.16;43.38;98570.78;5092641;28;20223;-65
2023/03/26 11:31:43;;;;;;;0.50;0.50;;;;;;;19.19;42.95;98567.03;5092778;28;20216;-64
2023/03/26 11:34:14;;;;;;;2.10;0.50;;;;;;;19.30;43.22;98560.59;5092516;28;20716;-61
2023/03/26 11:36:46;;;;;;;0.50;0.50;;;;;;;19.21;43.07;98568.47;5092725;28;20222;-64
2023/03/26 11:39:19;;;;;;;0.57;0.53;;;;;;;18.86;43.85;98567.38;5092173;28;20214;-64
2023/03/26 11:41:47;;;;;;;0.40;0.40;;;;;;;19.04;43.91;98558.47;5092416;28;20215;-65
2023/03/26 11:44:22;;;;;;;0.50;0.50;;;;;;;18.72;43.71;98574.09;5092052;28;20615;-65
2023/03/26 11:46:52;;;;;;;0.23;0.23;;;;;;;19.05;44.25;98562.66;5092732;28;20190;-64
2023/03/26 11:49:22;;;;;;;0.53;0.50;;;;;;;19.33;42.32;98555.06;5092137;28;20226;-64
2023/03/26 11:51:49;;;;;;;0.40;0.40;;;;;;;19.25;42.43;98553.34;5092310;28;20196;-62
2023/03/26 11:54:16;;;;;;;0.57;0.57;;;;;;;19.46;43.44;98534.50;5092174;28;20245;-61
2023/03/26 11:56:48;;;;;;;0.50;0.50;;;;;;;19.29;41.54;98553.81;5092573;28;20225;-61
2023/03/26 11:59:18;;;;;;;0.50;0.50;;;;;;;19.36;42.11;98545.13;5092060;28;20246;-64